臺北飛航情報區 - 海峽席

METAR RCTP 210230Z 34004KT 310V020 9999 FEW015 SCT100 23/18 Q1016 NOSIG RMK A3003=

站台狀態:Online
最後更新:2021-01-21 10:30:01